sensor_id;sensor_type;location;lat;lon;timestamp;pressure;altitude;pressure_sealevel;temperature;humidity
69796;BME280;57073;45.650;9.612;2023-02-12T00:09:22;100768.94;;;5.68;40.93
69796;BME280;57073;45.650;9.612;2023-02-12T00:19:22;100769.28;;;5.55;42.16
69796;BME280;57073;45.650;9.612;2023-02-12T00:29:23;100768.50;;;5.45;42.48
69796;BME280;57073;45.650;9.612;2023-02-12T00:39:24;100756.72;;;5.10;44.10
69796;BME280;57073;45.650;9.612;2023-02-12T00:49:24;100757.53;;;5.21;43.84
69796;BME280;57073;45.650;9.612;2023-02-12T00:59:25;100763.88;;;5.10;45.06
69796;BME280;57073;45.650;9.612;2023-02-12T01:09:26;100772.09;;;5.16;42.38
69796;BME280;57073;45.650;9.612;2023-02-12T01:19:26;100768.13;;;4.93;43.79
69796;BME280;57073;45.650;9.612;2023-02-12T01:29:27;100780.97;;;5.07;43.60
69796;BME280;57073;45.650;9.612;2023-02-12T01:39:27;100775.63;;;5.07;43.16
69796;BME280;57073;45.650;9.612;2023-02-12T01:49:46;100754.34;;;5.07;43.97
69796;BME280;57073;45.650;9.612;2023-02-12T01:59:50;100740.88;;;5.18;42.79
69796;BME280;57073;45.650;9.612;2023-02-12T02:09:52;100739.94;;;5.10;42.88
69796;BME280;57073;45.650;9.612;2023-02-12T02:41:26;100700.19;;;4.98;42.87
69796;BME280;57073;45.650;9.612;2023-02-12T02:51:39;100697.16;;;4.93;43.56
69796;BME280;57073;45.650;9.612;2023-02-12T03:01:44;100694.00;;;4.70;43.78
69796;BME280;57073;45.650;9.612;2023-02-12T03:11:47;100713.81;;;4.95;42.83
69796;BME280;57073;45.650;9.612;2023-02-12T03:22:14;100698.59;;;5.15;42.55
69796;BME280;57073;45.650;9.612;2023-02-12T03:32:29;100690.94;;;5.30;42.10
69796;BME280;57073;45.650;9.612;2023-02-12T03:52:52;100692.06;;;5.00;43.80
69796;BME280;57073;45.650;9.612;2023-02-12T04:02:53;100679.72;;;5.09;43.40
69796;BME280;57073;45.650;9.612;2023-02-12T04:13:04;100691.28;;;4.90;43.78
69796;BME280;57073;45.650;9.612;2023-02-12T04:44:22;100706.38;;;5.27;43.12
69796;BME280;57073;45.650;9.612;2023-02-12T04:54:23;100688.53;;;5.09;43.88
69796;BME280;57073;45.650;9.612;2023-02-12T05:04:24;100694.69;;;5.10;43.75
69796;BME280;57073;45.650;9.612;2023-02-12T05:14:24;100673.56;;;5.08;44.26
69796;BME280;57073;45.650;9.612;2023-02-12T05:24:25;100680.22;;;5.22;44.19
69796;BME280;57073;45.650;9.612;2023-02-12T05:34:25;100672.78;;;5.26;44.26
69796;BME280;57073;45.650;9.612;2023-02-12T05:44:25;100666.91;;;5.22;44.67
69796;BME280;57073;45.650;9.612;2023-02-12T05:54:26;100673.28;;;5.02;45.60
69796;BME280;57073;45.650;9.612;2023-02-12T06:04:27;100675.47;;;4.88;45.40
69796;BME280;57073;45.650;9.612;2023-02-12T06:14:28;100667.13;;;4.73;45.59
69796;BME280;57073;45.650;9.612;2023-02-12T06:24:28;100686.44;;;4.75;46.32
69796;BME280;57073;45.650;9.612;2023-02-12T06:34:28;100688.13;;;4.67;47.06
69796;BME280;57073;45.650;9.612;2023-02-12T06:44:29;100710.72;;;4.90;46.99
69796;BME280;57073;45.650;9.612;2023-02-12T06:54:29;100725.97;;;4.98;46.56
69796;BME280;57073;45.650;9.612;2023-02-12T07:04:29;100741.78;;;4.99;46.10
69796;BME280;57073;45.650;9.612;2023-02-12T07:14:30;100725.41;;;5.04;46.30
69796;BME280;57073;45.650;9.612;2023-02-12T07:24:30;100736.72;;;5.62;45.08
69796;BME280;57073;45.650;9.612;2023-02-12T07:34:31;100742.75;;;6.27;44.77
69796;BME280;57073;45.650;9.612;2023-02-12T07:44:31;100739.41;;;7.30;43.03
69796;BME280;57073;45.650;9.612;2023-02-12T07:54:33;100756.53;;;8.37;42.24
69796;BME280;57073;45.650;9.612;2023-02-12T08:04:33;100764.13;;;9.23;40.43
69796;BME280;57073;45.650;9.612;2023-02-12T08:14:34;100776.75;;;9.93;39.04
69796;BME280;57073;45.650;9.612;2023-02-12T08:24:34;100785.25;;;10.51;38.59
69796;BME280;57073;45.650;9.612;2023-02-12T08:34:34;100787.03;;;10.97;38.05
69796;BME280;57073;45.650;9.612;2023-02-12T08:44:35;100798.56;;;11.65;36.52
69796;BME280;57073;45.650;9.612;2023-02-12T08:54:36;100810.91;;;12.11;35.85
69796;BME280;57073;45.650;9.612;2023-02-12T09:04:36;100830.00;;;12.52;34.98
69796;BME280;57073;45.650;9.612;2023-02-12T09:14:37;100826.91;;;12.98;33.74
69796;BME280;57073;45.650;9.612;2023-02-12T09:24:37;100825.13;;;12.84;33.24
69796;BME280;57073;45.650;9.612;2023-02-12T09:34:37;100827.38;;;12.80;32.10
69796;BME280;57073;45.650;9.612;2023-02-12T09:45:06;100838.16;;;12.59;32.31
69796;BME280;57073;45.650;9.612;2023-02-12T09:55:15;100840.47;;;12.40;32.70
69796;BME280;57073;45.650;9.612;2023-02-12T10:05:19;100841.16;;;12.13;31.47
69796;BME280;57073;45.650;9.612;2023-02-12T10:25:47;100860.50;;;11.86;31.05
69796;BME280;57073;45.650;9.612;2023-02-12T10:35:54;100846.97;;;11.65;31.15
69796;BME280;57073;45.650;9.612;2023-02-12T10:45:57;100853.88;;;11.89;32.22
69796;BME280;57073;45.650;9.612;2023-02-12T11:06:15;100841.09;;;12.06;32.56
69796;BME280;57073;45.650;9.612;2023-02-12T11:16:26;100833.50;;;12.10;33.37
69796;BME280;57073;45.650;9.612;2023-02-12T11:26:28;100813.34;;;12.05;31.70
69796;BME280;57073;45.650;9.612;2023-02-12T11:36:32;100809.59;;;12.21;32.04
69796;BME280;57073;45.650;9.612;2023-02-12T11:46:35;100794.53;;;12.27;31.58
69796;BME280;57073;45.650;9.612;2023-02-12T11:56:40;100782.44;;;12.38;31.62
69796;BME280;57073;45.650;9.612;2023-02-12T12:06:55;100783.28;;;12.38;31.48
69796;BME280;57073;45.650;9.612;2023-02-12T12:17:04;100775.06;;;12.46;31.76
69796;BME280;57073;45.650;9.612;2023-02-12T12:27:35;100763.38;;;12.61;31.51
69796;BME280;57073;45.650;9.612;2023-02-12T12:38:17;100757.66;;;12.71;32.06
69796;BME280;57073;45.650;9.612;2023-02-12T12:58:59;100758.94;;;12.75;30.92
69796;BME280;57073;45.650;9.612;2023-02-12T13:09:38;100752.38;;;12.84;30.40
69796;BME280;57073;45.650;9.612;2023-02-12T13:29:52;100754.72;;;12.94;30.13
69796;BME280;57073;45.650;9.612;2023-02-12T13:39:57;100765.75;;;12.99;29.65
69796;BME280;57073;45.650;9.612;2023-02-12T13:50:30;100776.66;;;12.91;29.14
69796;BME280;57073;45.650;9.612;2023-02-12T14:11:04;100802.53;;;13.13;30.00
69796;BME280;57073;45.650;9.612;2023-02-12T14:41:23;100821.34;;;13.07;29.51
69796;BME280;57073;45.650;9.612;2023-02-12T14:51:57;100835.72;;;12.85;28.48
69796;BME280;57073;45.650;9.612;2023-02-12T15:01:59;100831.72;;;12.81;29.51
69796;BME280;57073;45.650;9.612;2023-02-12T15:12:11;100842.91;;;12.78;29.71
69796;BME280;57073;45.650;9.612;2023-02-12T15:22:23;100858.16;;;12.71;30.25
69796;BME280;57073;45.650;9.612;2023-02-12T15:32:28;100862.78;;;12.77;31.23
69796;BME280;57073;45.650;9.612;2023-02-12T15:42:35;100864.03;;;12.60;32.22
69796;BME280;57073;45.650;9.612;2023-02-12T15:52:39;100877.69;;;12.37;32.09
69796;BME280;57073;45.650;9.612;2023-02-12T16:02:40;100884.22;;;12.13;30.61
69796;BME280;57073;45.650;9.612;2023-02-12T16:12:41;100888.53;;;11.92;31.30
69796;BME280;57073;45.650;9.612;2023-02-12T16:22:43;100900.00;;;11.86;31.48
69796;BME280;57073;45.650;9.612;2023-02-12T16:32:44;100921.59;;;11.48;32.29
69796;BME280;57073;45.650;9.612;2023-02-12T16:52:45;100941.22;;;11.34;33.41
69796;BME280;57073;45.650;9.612;2023-02-12T17:02:45;100948.69;;;11.23;33.61
69796;BME280;57073;45.650;9.612;2023-02-12T17:12:50;100981.00;;;10.92;34.64
69796;BME280;57073;45.650;9.612;2023-02-12T17:22:53;100990.84;;;11.00;35.10
69796;BME280;57073;45.650;9.612;2023-02-12T17:32:54;100999.72;;;10.77;35.30
69796;BME280;57073;45.650;9.612;2023-02-12T17:42:54;101018.28;;;10.87;35.64
69796;BME280;57073;45.650;9.612;2023-02-12T17:52:54;101035.00;;;10.66;36.08
69796;BME280;57073;45.650;9.612;2023-02-12T18:02:55;101046.44;;;10.68;35.64
69796;BME280;57073;45.650;9.612;2023-02-12T18:12:55;101050.13;;;10.98;36.71
69796;BME280;57073;45.650;9.612;2023-02-12T18:22:56;101052.16;;;10.57;36.17
69796;BME280;57073;45.650;9.612;2023-02-12T18:32:56;101051.56;;;10.78;36.76
69796;BME280;57073;45.650;9.612;2023-02-12T18:42:56;101055.75;;;10.80;36.16
69796;BME280;57073;45.650;9.612;2023-02-12T18:52:57;101053.84;;;10.49;37.43
69796;BME280;57073;45.650;9.612;2023-02-12T19:02:57;101063.31;;;10.37;38.09
69796;BME280;57073;45.650;9.612;2023-02-12T19:12:58;101071.38;;;10.21;38.55
69796;BME280;57073;45.650;9.612;2023-02-12T19:22:58;101078.44;;;9.48;40.60
69796;BME280;57073;45.650;9.612;2023-02-12T19:32:59;101088.78;;;9.26;41.95
69796;BME280;57073;45.650;9.612;2023-02-12T19:42:59;101094.44;;;9.07;42.31
69796;BME280;57073;45.650;9.612;2023-02-12T19:52:59;101099.56;;;8.92;41.87
69796;BME280;57073;45.650;9.612;2023-02-12T20:03:00;101106.03;;;8.73;42.98
69796;BME280;57073;45.650;9.612;2023-02-12T20:13:00;101111.31;;;8.64;42.58
69796;BME280;57073;45.650;9.612;2023-02-12T20:23:00;101108.22;;;8.43;43.27
69796;BME280;57073;45.650;9.612;2023-02-12T20:33:01;101117.03;;;8.17;44.08
69796;BME280;57073;45.650;9.612;2023-02-12T20:43:01;101126.19;;;7.89;45.81
69796;BME280;57073;45.650;9.612;2023-02-12T20:53:02;101136.44;;;7.75;46.16
69796;BME280;57073;45.650;9.612;2023-02-12T21:03:02;101135.66;;;7.83;45.79
69796;BME280;57073;45.650;9.612;2023-02-12T21:13:03;101142.91;;;7.55;45.57
69796;BME280;57073;45.650;9.612;2023-02-12T21:23:03;101155.13;;;7.57;45.01
69796;BME280;57073;45.650;9.612;2023-02-12T21:33:04;101145.56;;;7.37;45.34
69796;BME280;57073;45.650;9.612;2023-02-12T21:43:04;101156.72;;;7.50;42.42
69796;BME280;57073;45.650;9.612;2023-02-12T21:53:04;101157.72;;;7.49;45.81
69796;BME280;57073;45.650;9.612;2023-02-12T22:03:05;101164.47;;;7.25;47.38
69796;BME280;57073;45.650;9.612;2023-02-12T22:13:05;101172.25;;;7.19;46.05
69796;BME280;57073;45.650;9.612;2023-02-12T22:23:06;101176.56;;;7.02;46.57
69796;BME280;57073;45.650;9.612;2023-02-12T22:33:06;101194.72;;;6.88;46.76
69796;BME280;57073;45.650;9.612;2023-02-12T22:43:06;101220.84;;;6.85;47.99
69796;BME280;57073;45.650;9.612;2023-02-12T22:53:07;101216.16;;;6.59;47.28
69796;BME280;57073;45.650;9.612;2023-02-12T23:03:07;101240.03;;;6.51;48.25
69796;BME280;57073;45.650;9.612;2023-02-12T23:13:07;101256.47;;;6.27;48.22
69796;BME280;57073;45.650;9.612;2023-02-12T23:23:08;101260.69;;;6.29;48.81
69796;BME280;57073;45.650;9.612;2023-02-12T23:33:08;101267.56;;;6.22;49.09
69796;BME280;57073;45.650;9.612;2023-02-12T23:43:09;101273.75;;;6.13;49.16
69796;BME280;57073;45.650;9.612;2023-02-12T23:53:09;101273.44;;;6.16;48.49
